sensor_id;sensor_type;location;lat;lon;timestamp;pressure;altitude;pressure_sealevel;temperature;humidity
4834;BME280;12895;51.064;7.028;2023-07-24T00:00:59;99814.59;;;19.40;84.43
4834;BME280;12895;51.064;7.028;2023-07-24T00:03:47;99799.81;;;19.39;84.45
4834;BME280;12895;51.064;7.028;2023-07-24T00:06:34;99803.56;;;19.34;84.08
4834;BME280;12895;51.064;7.028;2023-07-24T00:09:21;99803.56;;;19.34;84.10
4834;BME280;12895;51.064;7.028;2023-07-24T00:12:08;99806.09;;;19.17;84.49
4834;BME280;12895;51.064;7.028;2023-07-24T00:14:55;99803.41;;;19.04;85.16
4834;BME280;12895;51.064;7.028;2023-07-24T00:17:42;99797.44;;;19.00;85.30
4834;BME280;12895;51.064;7.028;2023-07-24T00:20:31;99800.06;;;18.98;85.21
4834;BME280;12895;51.064;7.028;2023-07-24T00:23:18;99791.84;;;19.00;85.26
4834;BME280;12895;51.064;7.028;2023-07-24T00:26:04;99784.75;;;18.99;85.36
4834;BME280;12895;51.064;7.028;2023-07-24T00:28:51;99793.50;;;19.03;85.13
4834;BME280;12895;51.064;7.028;2023-07-24T00:31:40;99794.44;;;18.98;85.26
4834;BME280;12895;51.064;7.028;2023-07-24T00:34:28;99795.56;;;18.95;85.53
4834;BME280;12895;51.064;7.028;2023-07-24T00:37:17;99799.84;;;18.96;85.26
4834;BME280;12895;51.064;7.028;2023-07-24T00:40:07;99790.34;;;18.99;85.53
4834;BME280;12895;51.064;7.028;2023-07-24T00:42:54;99794.03;;;18.94;85.57
4834;BME280;12895;51.064;7.028;2023-07-24T00:45:42;99788.66;;;18.96;84.82
4834;BME280;12895;51.064;7.028;2023-07-24T00:48:29;99788.81;;;18.91;84.93
4834;BME280;12895;51.064;7.028;2023-07-24T00:51:16;99778.34;;;18.84;85.44
4834;BME280;12895;51.064;7.028;2023-07-24T00:54:05;99778.31;;;18.76;85.49
4834;BME280;12895;51.064;7.028;2023-07-24T00:56:53;99781.66;;;18.75;85.52
4834;BME280;12895;51.064;7.028;2023-07-24T00:59:41;99773.25;;;18.75;85.81
4834;BME280;12895;51.064;7.028;2023-07-24T01:02:29;99771.00;;;18.73;85.86
4834;BME280;12895;51.064;7.028;2023-07-24T01:05:16;99764.50;;;18.78;85.81
4834;BME280;12895;51.064;7.028;2023-07-24T01:08:04;99757.63;;;18.87;85.48
4834;BME280;12895;51.064;7.028;2023-07-24T01:10:52;99765.66;;;18.90;85.60
4834;BME280;12895;51.064;7.028;2023-07-24T01:13:42;99749.25;;;18.94;84.83
4834;BME280;12895;51.064;7.028;2023-07-24T01:16:36;99743.44;;;18.92;85.07
4834;BME280;12895;51.064;7.028;2023-07-24T01:19:35;99734.53;;;19.01;84.52
4834;BME280;12895;51.064;7.028;2023-07-24T01:22:29;99732.25;;;19.00;84.26
4834;BME280;12895;51.064;7.028;2023-07-24T01:25:32;99726.28;;;18.88;84.70
4834;BME280;12895;51.064;7.028;2023-07-24T01:28:22;99726.09;;;18.86;84.26
4834;BME280;12895;51.064;7.028;2023-07-24T01:31:09;99721.94;;;18.72;84.70
4834;BME280;12895;51.064;7.028;2023-07-24T01:33:57;99715.19;;;18.68;84.66
4834;BME280;12895;51.064;7.028;2023-07-24T01:36:44;99718.13;;;18.55;85.38
4834;BME280;12895;51.064;7.028;2023-07-24T01:39:32;99712.91;;;18.51;85.58
4834;BME280;12895;51.064;7.028;2023-07-24T01:42:19;99711.41;;;18.50;85.58
4834;BME280;12895;51.064;7.028;2023-07-24T01:45:09;99709.50;;;18.45;85.63
4834;BME280;12895;51.064;7.028;2023-07-24T01:47:57;99706.88;;;18.40;85.91
4834;BME280;12895;51.064;7.028;2023-07-24T01:50:46;99706.47;;;18.36;85.67
4834;BME280;12895;51.064;7.028;2023-07-24T01:53:33;99696.44;;;18.40;86.03
4834;BME280;12895;51.064;7.028;2023-07-24T01:56:20;99698.53;;;18.47;85.57
4834;BME280;12895;51.064;7.028;2023-07-24T01:59:07;99684.91;;;18.51;85.55
4834;BME280;12895;51.064;7.028;2023-07-24T02:01:56;99673.53;;;18.49;84.92
4834;BME280;12895;51.064;7.028;2023-07-24T02:04:43;99673.34;;;18.47;85.05
4834;BME280;12895;51.064;7.028;2023-07-24T02:07:30;99681.91;;;18.49;85.13
4834;BME280;12895;51.064;7.028;2023-07-24T02:10:17;99683.78;;;18.47;85.06
4834;BME280;12895;51.064;7.028;2023-07-24T02:13:04;99691.66;;;18.56;85.21
4834;BME280;12895;51.064;7.028;2023-07-24T02:15:53;99686.22;;;18.50;85.49
4834;BME280;12895;51.064;7.028;2023-07-24T02:18:42;99681.22;;;18.64;84.94
4834;BME280;12895;51.064;7.028;2023-07-24T02:21:29;99689.78;;;18.58;84.97
4834;BME280;12895;51.064;7.028;2023-07-24T02:24:16;99678.97;;;18.62;84.98
4834;BME280;12895;51.064;7.028;2023-07-24T02:27:04;99667.06;;;18.69;84.55
4834;BME280;12895;51.064;7.028;2023-07-24T02:29:52;99667.06;;;18.69;84.59
4834;BME280;12895;51.064;7.028;2023-07-24T02:32:39;99651.94;;;18.72;84.06
4834;BME280;12895;51.064;7.028;2023-07-24T02:35:29;99654.75;;;18.80;83.59
4834;BME280;12895;51.064;7.028;2023-07-24T02:38:16;99645.81;;;18.81;83.51
4834;BME280;12895;51.064;7.028;2023-07-24T02:41:03;99654.03;;;18.79;83.99
4834;BME280;12895;51.064;7.028;2023-07-24T02:43:50;99657.38;;;18.78;84.03
4834;BME280;12895;51.064;7.028;2023-07-24T02:46:38;99657.03;;;18.96;83.16
4834;BME280;12895;51.064;7.028;2023-07-24T02:49:25;99662.59;;;18.81;83.85
4834;BME280;12895;51.064;7.028;2023-07-24T02:52:13;99662.19;;;18.70;84.54
4834;BME280;12895;51.064;7.028;2023-07-24T02:55:00;99658.06;;;18.63;84.59
4834;BME280;12895;51.064;7.028;2023-07-24T02:57:47;99654.31;;;18.53;85.23
4834;BME280;12895;51.064;7.028;2023-07-24T03:00:34;99645.72;;;18.51;85.76
4834;BME280;12895;51.064;7.028;2023-07-24T03:03:21;99629.31;;;18.55;85.81
4834;BME280;12895;51.064;7.028;2023-07-24T03:06:08;99621.16;;;18.65;84.98
4834;BME280;12895;51.064;7.028;2023-07-24T03:08:57;99638.47;;;18.63;85.00
4834;BME280;12895;51.064;7.028;2023-07-24T03:11:44;99647.28;;;18.67;84.77
4834;BME280;12895;51.064;7.028;2023-07-24T03:14:31;99636.63;;;18.58;85.08
4834;BME280;12895;51.064;7.028;2023-07-24T03:17:18;99632.34;;;18.57;85.26
4834;BME280;12895;51.064;7.028;2023-07-24T03:20:09;99622.81;;;18.60;85.00
4834;BME280;12895;51.064;7.028;2023-07-24T03:22:56;99623.16;;;18.49;85.68
4834;BME280;12895;51.064;7.028;2023-07-24T03:25:44;99614.59;;;18.47;85.86
4834;BME280;12895;51.064;7.028;2023-07-24T03:28:31;99618.88;;;18.56;85.25
4834;BME280;12895;51.064;7.028;2023-07-24T03:31:18;99610.66;;;18.43;86.32
4834;BME280;12895;51.064;7.028;2023-07-24T03:34:06;99611.38;;;18.43;85.85
4834;BME280;12895;51.064;7.028;2023-07-24T03:36:53;99612.09;;;18.36;85.97
4834;BME280;12895;51.064;7.028;2023-07-24T03:39:40;99609.13;;;18.34;86.46
4834;BME280;12895;51.064;7.028;2023-07-24T03:42:30;99608.75;;;18.30;85.96
4834;BME280;12895;51.064;7.028;2023-07-24T03:45:17;99603.84;;;18.23;86.69
4834;BME280;12895;51.064;7.028;2023-07-24T03:48:05;99606.03;;;18.17;86.64
4834;BME280;12895;51.064;7.028;2023-07-24T03:50:58;99599.72;;;18.24;86.72
4834;BME280;12895;51.064;7.028;2023-07-24T03:53:46;99601.66;;;18.29;86.77
4834;BME280;12895;51.064;7.028;2023-07-24T03:56:33;99602.56;;;18.32;86.63
4834;BME280;12895;51.064;7.028;2023-07-24T03:59:21;99603.91;;;18.38;86.31
4834;BME280;12895;51.064;7.028;2023-07-24T04:02:08;99596.09;;;18.44;86.18
4834;BME280;12895;51.064;7.028;2023-07-24T04:04:55;99592.38;;;18.49;85.98
4834;BME280;12895;51.064;7.028;2023-07-24T04:07:42;99597.78;;;18.47;86.10
4834;BME280;12895;51.064;7.028;2023-07-24T04:10:29;99599.47;;;18.50;86.01
4834;BME280;12895;51.064;7.028;2023-07-24T04:13:17;99600.59;;;18.47;85.99
4834;BME280;12895;51.064;7.028;2023-07-24T04:16:05;99582.50;;;18.56;85.50
4834;BME280;12895;51.064;7.028;2023-07-24T04:18:52;99591.63;;;18.49;86.25
4834;BME280;12895;51.064;7.028;2023-07-24T04:21:39;99595.19;;;18.49;85.84
4834;BME280;12895;51.064;7.028;2023-07-24T04:24:26;99588.09;;;18.48;85.67
4834;BME280;12895;51.064;7.028;2023-07-24T04:27:13;99594.66;;;18.58;85.08
4834;BME280;12895;51.064;7.028;2023-07-24T04:30:00;99579.72;;;18.56;85.59
4834;BME280;12895;51.064;7.028;2023-07-24T04:32:49;99591.06;;;18.50;85.16
4834;BME280;12895;51.064;7.028;2023-07-24T04:35:36;99593.69;;;18.48;85.64
4834;BME280;12895;51.064;7.028;2023-07-24T04:38:23;99588.66;;;18.54;85.43
4834;BME280;12895;51.064;7.028;2023-07-24T04:41:10;99589.97;;;18.53;85.61
4834;BME280;12895;51.064;7.028;2023-07-24T04:43:58;99592.94;;;18.55;85.94
4834;BME280;12895;51.064;7.028;2023-07-24T04:46:45;99599.88;;;18.62;85.51
4834;BME280;12895;51.064;7.028;2023-07-24T04:49:33;99602.09;;;18.63;85.22
4834;BME280;12895;51.064;7.028;2023-07-24T04:52:20;99607.34;;;18.67;85.18
4834;BME280;12895;51.064;7.028;2023-07-24T04:55:08;99603.44;;;18.77;84.30
4834;BME280;12895;51.064;7.028;2023-07-24T04:57:55;99613.34;;;18.78;84.69
4834;BME280;12895;51.064;7.028;2023-07-24T05:00:42;99605.69;;;18.86;83.83
4834;BME280;12895;51.064;7.028;2023-07-24T05:03:29;99615.78;;;18.82;84.02
4834;BME280;12895;51.064;7.028;2023-07-24T05:06:18;99604.41;;;18.87;83.97
4834;BME280;12895;51.064;7.028;2023-07-24T05:09:05;99611.09;;;18.84;84.25
4834;BME280;12895;51.064;7.028;2023-07-24T05:11:52;99612.22;;;18.89;84.02
4834;BME280;12895;51.064;7.028;2023-07-24T05:14:39;99621.19;;;18.95;83.65
4834;BME280;12895;51.064;7.028;2023-07-24T05:17:26;99619.31;;;18.90;84.03
4834;BME280;12895;51.064;7.028;2023-07-24T05:20:14;99627.91;;;18.92;84.02
4834;BME280;12895;51.064;7.028;2023-07-24T05:23:02;99622.31;;;18.99;83.54
4834;BME280;12895;51.064;7.028;2023-07-24T05:25:56;99627.91;;;18.99;83.63
4834;BME280;12895;51.064;7.028;2023-07-24T05:28:43;99625.47;;;19.03;84.19
4834;BME280;12895;51.064;7.028;2023-07-24T05:31:30;99620.47;;;19.09;83.52
4834;BME280;12895;51.064;7.028;2023-07-24T05:34:17;99626.81;;;19.17;82.88
4834;BME280;12895;51.064;7.028;2023-07-24T05:37:05;99637.31;;;19.24;82.78
4834;BME280;12895;51.064;7.028;2023-07-24T05:39:53;99635.22;;;19.32;82.25
4834;BME280;12895;51.064;7.028;2023-07-24T05:42:40;99632.25;;;19.45;81.18
4834;BME280;12895;51.064;7.028;2023-07-24T05:45:29;99620.03;;;19.80;79.81
4834;BME280;12895;51.064;7.028;2023-07-24T05:48:16;99624.47;;;19.98;78.98
4834;BME280;12895;51.064;7.028;2023-07-24T05:51:03;99615.88;;;19.96;78.60
4834;BME280;12895;51.064;7.028;2023-07-24T05:53:50;99635.31;;;20.09;78.80
4834;BME280;12895;51.064;7.028;2023-07-24T05:56:38;99622.59;;;20.08;77.90
4834;BME280;12895;51.064;7.028;2023-07-24T05:59:25;99643.72;;;20.09;77.67
4834;BME280;12895;51.064;7.028;2023-07-24T06:02:12;99645.72;;;20.31;75.31
4834;BME280;12895;51.064;7.028;2023-07-24T06:04:59;99656.09;;;20.53;75.01
4834;BME280;12895;51.064;7.028;2023-07-24T06:07:46;99657.91;;;20.65;72.45
4834;BME280;12895;51.064;7.028;2023-07-24T06:10:34;99638.19;;;20.73;71.68
4834;BME280;12895;51.064;7.028;2023-07-24T06:13:22;99648.16;;;20.66;71.73
4834;BME280;12895;51.064;7.028;2023-07-24T06:16:09;99651.91;;;20.69;70.41
4834;BME280;12895;51.064;7.028;2023-07-24T06:18:58;99638.47;;;20.52;70.36
4834;BME280;12895;51.064;7.028;2023-07-24T06:21:45;99654.06;;;20.78;71.29
4834;BME280;12895;51.064;7.028;2023-07-24T06:24:32;99658.94;;;20.77;69.31
4834;BME280;12895;51.064;7.028;2023-07-24T06:27:20;99656.28;;;20.87;71.45
4834;BME280;12895;51.064;7.028;2023-07-24T06:30:08;99650.75;;;21.04;71.62
4834;BME280;12895;51.064;7.028;2023-07-24T06:32:55;99665.50;;;21.12;67.28
4834;BME280;12895;51.064;7.028;2023-07-24T06:35:42;99666.34;;;21.22;68.81
4834;BME280;12895;51.064;7.028;2023-07-24T06:38:30;99657.38;;;21.16;67.29
4834;BME280;12895;51.064;7.028;2023-07-24T06:41:17;99659.06;;;21.19;68.74
4834;BME280;12895;51.064;7.028;2023-07-24T06:44:05;99637.28;;;21.27;66.16
4834;BME280;12895;51.064;7.028;2023-07-24T06:46:54;99644.88;;;21.17;67.67
4834;BME280;12895;51.064;7.028;2023-07-24T06:49:41;99644.78;;;21.24;67.47
4834;BME280;12895;51.064;7.028;2023-07-24T06:52:28;99643.31;;;21.23;67.03
4834;BME280;12895;51.064;7.028;2023-07-24T06:55:15;99645.19;;;21.21;67.85
4834;BME280;12895;51.064;7.028;2023-07-24T06:58:02;99641.28;;;21.41;66.42
4834;BME280;12895;51.064;7.028;2023-07-24T07:00:49;99644.00;;;21.31;65.43
4834;BME280;12895;51.064;7.028;2023-07-24T07:03:37;99648.09;;;21.30;65.82
4834;BME280;12895;51.064;7.028;2023-07-24T07:06:24;99641.59;;;21.45;64.89
4834;BME280;12895;51.064;7.028;2023-07-24T07:09:11;99629.44;;;21.67;65.23
4834;BME280;12895;51.064;7.028;2023-07-24T07:11:58;99636.66;;;21.94;64.61
4834;BME280;12895;51.064;7.028;2023-07-24T07:14:45;99639.56;;;22.04;63.60
4834;BME280;12895;51.064;7.028;2023-07-24T07:17:32;99626.16;;;21.95;63.21
4834;BME280;12895;51.064;7.028;2023-07-24T07:20:21;99625.44;;;22.21;62.33
4834;BME280;12895;51.064;7.028;2023-07-24T07:23:08;99638.19;;;22.22;61.58
4834;BME280;12895;51.064;7.028;2023-07-24T07:25:55;99635.13;;;22.27;62.01
4834;BME280;12895;51.064;7.028;2023-07-24T07:28:42;99635.41;;;22.05;61.54
4834;BME280;12895;51.064;7.028;2023-07-24T07:31:30;99639.28;;;21.75;61.67
4834;BME280;12895;51.064;7.028;2023-07-24T07:34:17;99635.25;;;21.86;62.49
4834;BME280;12895;51.064;7.028;2023-07-24T07:37:06;99632.25;;;21.84;62.34
4834;BME280;12895;51.064;7.028;2023-07-24T07:39:53;99646.00;;;21.97;60.04
4834;BME280;12895;51.064;7.028;2023-07-24T07:42:40;99635.41;;;21.88;59.81
4834;BME280;12895;51.064;7.028;2023-07-24T07:45:27;99630.44;;;21.79;60.36
4834;BME280;12895;51.064;7.028;2023-07-24T07:48:14;99621.91;;;22.03;58.79
4834;BME280;12895;51.064;7.028;2023-07-24T07:51:01;99611.75;;;21.91;59.00
4834;BME280;12895;51.064;7.028;2023-07-24T07:53:50;99625.00;;;21.98;58.95
4834;BME280;12895;51.064;7.028;2023-07-24T07:56:37;99621.00;;;22.18;58.69
4834;BME280;12895;51.064;7.028;2023-07-24T07:59:24;99614.34;;;22.40;58.79
4834;BME280;12895;51.064;7.028;2023-07-24T08:02:11;99615.91;;;22.33;58.38
4834;BME280;12895;51.064;7.028;2023-07-24T08:04:58;99612.03;;;22.46;57.92
4834;BME280;12895;51.064;7.028;2023-07-24T08:07:45;99610.50;;;22.62;57.95
4834;BME280;12895;51.064;7.028;2023-07-24T08:10:36;99598.88;;;22.48;58.78
4834;BME280;12895;51.064;7.028;2023-07-24T08:13:23;99601.03;;;22.23;58.28
4834;BME280;12895;51.064;7.028;2023-07-24T08:16:13;99595.63;;;22.35;59.10
4834;BME280;12895;51.064;7.028;2023-07-24T08:19:04;99612.78;;;22.46;57.85
4834;BME280;12895;51.064;7.028;2023-07-24T08:21:51;99628.25;;;22.38;58.07
4834;BME280;12895;51.064;7.028;2023-07-24T08:24:38;99616.84;;;22.36;58.16
4834;BME280;12895;51.064;7.028;2023-07-24T08:27:26;99613.41;;;22.54;57.49
4834;BME280;12895;51.064;7.028;2023-07-24T08:30:14;99610.97;;;22.67;58.08
4834;BME280;12895;51.064;7.028;2023-07-24T08:33:01;99625.84;;;22.51;59.07
4834;BME280;12895;51.064;7.028;2023-07-24T08:35:47;99613.53;;;22.47;58.18
4834;BME280;12895;51.064;7.028;2023-07-24T08:38:43;99606.72;;;22.50;58.40
4834;BME280;12895;51.064;7.028;2023-07-24T08:41:30;99610.97;;;22.67;58.69
4834;BME280;12895;51.064;7.028;2023-07-24T08:44:22;99599.59;;;22.75;57.78
4834;BME280;12895;51.064;7.028;2023-07-24T08:47:10;99593.84;;;22.56;58.18
4834;BME280;12895;51.064;7.028;2023-07-24T08:49:58;99592.97;;;22.54;57.72
4834;BME280;12895;51.064;7.028;2023-07-24T08:52:46;99588.19;;;22.30;59.42
4834;BME280;12895;51.064;7.028;2023-07-24T08:55:33;99586.06;;;22.21;59.37
4834;BME280;12895;51.064;7.028;2023-07-24T08:58:21;99578.25;;;22.46;59.08
4834;BME280;12895;51.064;7.028;2023-07-24T09:01:09;99579.59;;;22.28;58.98
4834;BME280;12895;51.064;7.028;2023-07-24T09:03:57;99591.06;;;22.39;59.46
4834;BME280;12895;51.064;7.028;2023-07-24T09:06:45;99581.41;;;22.33;58.28
4834;BME280;12895;51.064;7.028;2023-07-24T09:09:32;99580.91;;;22.27;58.60
4834;BME280;12895;51.064;7.028;2023-07-24T09:12:21;99586.06;;;22.21;59.26
4834;BME280;12895;51.064;7.028;2023-07-24T09:15:09;99606.66;;;22.23;59.38
4834;BME280;12895;51.064;7.028;2023-07-24T09:18:00;99593.69;;;22.11;59.13
4834;BME280;12895;51.064;7.028;2023-07-24T09:20:48;99596.16;;;22.24;59.10
4834;BME280;12895;51.064;7.028;2023-07-24T09:23:35;99597.00;;;22.17;61.86
4834;BME280;12895;51.064;7.028;2023-07-24T09:26:22;99599.41;;;22.20;59.98
4834;BME280;12895;51.064;7.028;2023-07-24T09:29:09;99604.28;;;22.20;60.07
4834;BME280;12895;51.064;7.028;2023-07-24T09:31:56;99603.69;;;22.21;59.08
4834;BME280;12895;51.064;7.028;2023-07-24T09:34:45;99605.59;;;22.19;58.54
4834;BME280;12895;51.064;7.028;2023-07-24T09:37:34;99584.94;;;22.33;59.29
4834;BME280;12895;51.064;7.028;2023-07-24T09:40:21;99581.31;;;22.67;56.40
4834;BME280;12895;51.064;7.028;2023-07-24T09:43:16;99560.97;;;22.94;56.84
4834;BME280;12895;51.064;7.028;2023-07-24T09:46:04;99548.34;;;23.31;55.81
4834;BME280;12895;51.064;7.028;2023-07-24T09:48:52;99544.81;;;23.59;55.14
4834;BME280;12895;51.064;7.028;2023-07-24T09:51:42;99549.72;;;23.49;55.78
4834;BME280;12895;51.064;7.028;2023-07-24T09:54:39;99544.09;;;23.68;54.16
4834;BME280;12895;51.064;7.028;2023-07-24T09:57:32;99546.16;;;23.58;53.81
4834;BME280;12895;51.064;7.028;2023-07-24T10:00:20;99536.22;;;23.67;53.85
4834;BME280;12895;51.064;7.028;2023-07-24T10:03:08;99535.31;;;23.45;54.88
4834;BME280;12895;51.064;7.028;2023-07-24T10:05:55;99526.69;;;23.53;54.97
4834;BME280;12895;51.064;7.028;2023-07-24T10:08:44;99528.47;;;23.67;54.21
4834;BME280;12895;51.064;7.028;2023-07-24T10:11:31;99524.78;;;23.46;53.89
4834;BME280;12895;51.064;7.028;2023-07-24T10:14:18;99524.91;;;23.38;54.80
4834;BME280;12895;51.064;7.028;2023-07-24T10:17:06;99526.69;;;23.43;54.47
4834;BME280;12895;51.064;7.028;2023-07-24T10:20:01;99520.88;;;23.22;55.83
4834;BME280;12895;51.064;7.028;2023-07-24T10:22:50;99524.31;;;23.30;54.37
4834;BME280;12895;51.064;7.028;2023-07-24T10:25:39;99521.09;;;23.07;56.36
4834;BME280;12895;51.064;7.028;2023-07-24T10:28:30;99513.28;;;23.15;55.20
4834;BME280;12895;51.064;7.028;2023-07-24T10:31:22;99505.00;;;23.36;54.68
4834;BME280;12895;51.064;7.028;2023-07-24T10:34:09;99496.69;;;23.57;54.68
4834;BME280;12895;51.064;7.028;2023-07-24T10:37:02;99489.13;;;23.98;53.08
4834;BME280;12895;51.064;7.028;2023-07-24T10:39:49;99487.34;;;24.02;52.32
4834;BME280;12895;51.064;7.028;2023-07-24T10:42:37;99480.53;;;24.45;50.96
4834;BME280;12895;51.064;7.028;2023-07-24T10:45:24;99475.25;;;24.91;51.75
4834;BME280;12895;51.064;7.028;2023-07-24T10:48:11;99474.69;;;25.56;50.00
4834;BME280;12895;51.064;7.028;2023-07-24T10:51:06;99486.50;;;25.64;51.06
4834;BME280;12895;51.064;7.028;2023-07-24T10:53:54;99479.44;;;25.74;49.00
4834;BME280;12895;51.064;7.028;2023-07-24T10:56:41;99476.50;;;25.30;49.43
4834;BME280;12895;51.064;7.028;2023-07-24T10:59:39;99467.84;;;25.70;49.61
4834;BME280;12895;51.064;7.028;2023-07-24T11:02:26;99460.59;;;26.11;48.07
4834;BME280;12895;51.064;7.028;2023-07-24T11:05:14;99452.25;;;25.80;49.59
4834;BME280;12895;51.064;7.028;2023-07-24T11:08:08;99458.00;;;25.71;49.68
4834;BME280;12895;51.064;7.028;2023-07-24T11:10:59;99447.13;;;25.56;49.28
4834;BME280;12895;51.064;7.028;2023-07-24T11:13:47;99451.19;;;25.53;53.06
4834;BME280;12895;51.064;7.028;2023-07-24T11:16:35;99444.78;;;24.90;54.62
4834;BME280;12895;51.064;7.028;2023-07-24T11:19:23;99446.03;;;24.56;56.10
4834;BME280;12895;51.064;7.028;2023-07-24T11:22:10;99437.09;;;24.50;55.85
4834;BME280;12895;51.064;7.028;2023-07-24T11:24:58;99440.28;;;24.35;54.83
4834;BME280;12895;51.064;7.028;2023-07-24T11:27:45;99429.84;;;24.07;55.89
4834;BME280;12895;51.064;7.028;2023-07-24T11:30:33;99424.97;;;23.89;60.29
4834;BME280;12895;51.064;7.028;2023-07-24T11:33:22;99423.56;;;23.40;61.36
4834;BME280;12895;51.064;7.028;2023-07-24T11:36:09;99409.16;;;23.17;59.61
4834;BME280;12895;51.064;7.028;2023-07-24T11:38:56;99403.94;;;23.04;60.89
4834;BME280;12895;51.064;7.028;2023-07-24T11:41:44;99397.66;;;22.77;61.16
4834;BME280;12895;51.064;7.028;2023-07-24T11:44:31;99397.97;;;22.72;63.36
4834;BME280;12895;51.064;7.028;2023-07-24T11:47:18;99402.50;;;22.49;65.57
4834;BME280;12895;51.064;7.028;2023-07-24T11:50:08;99436.44;;;22.15;67.57
4834;BME280;12895;51.064;7.028;2023-07-24T11:52:55;99504.91;;;22.27;68.63
4834;BME280;12895;51.064;7.028;2023-07-24T11:55:42;99563.19;;;19.87;81.04
4834;BME280;12895;51.064;7.028;2023-07-24T11:58:29;99545.53;;;17.84;90.17
